createdAt,value
2019-05-09T00:00:03.822Z,992.01
2019-05-09T00:01:04.495Z,992.09
2019-05-09T00:02:04.913Z,992.12
2019-05-09T00:03:06.457Z,992.04
2019-05-09T00:04:06.876Z,992.14
2019-05-09T00:05:07.417Z,992.11
2019-05-09T00:06:07.831Z,992.06
2019-05-09T00:07:08.317Z,992.06
2019-05-09T00:08:08.749Z,992.11
2019-05-09T00:09:09.265Z,992.09
2019-05-09T00:10:09.688Z,992.07
2019-05-09T00:11:10.196Z,992.18
2019-05-09T00:12:10.624Z,992.11
2019-05-09T00:13:13.510Z,992.10
2019-05-09T00:14:14.177Z,992.06
2019-05-09T00:15:14.675Z,992.17
2019-05-09T00:16:15.084Z,992.11
2019-05-09T00:17:15.561Z,992.15
2019-05-09T00:18:15.982Z,992.11
2019-05-09T00:19:16.488Z,992.13
2019-05-09T00:20:16.934Z,992.09
2019-05-09T00:21:17.420Z,992.10
2019-05-09T00:22:17.836Z,992.09
2019-05-09T00:23:18.357Z,992.11
2019-05-09T00:24:18.782Z,992.12
2019-05-09T00:25:19.323Z,992.10
2019-05-09T00:26:19.748Z,992.11
2019-05-09T00:27:20.228Z,992.09
2019-05-09T00:28:20.643Z,992.14
2019-05-09T00:29:21.167Z,992.13
2019-05-09T00:30:23.186Z,992.07
2019-05-09T00:31:23.946Z,992.12
2019-05-09T00:32:24.387Z,992.12
2019-05-09T00:33:25.900Z,992.18
2019-05-09T00:34:26.329Z,992.16
2019-05-09T00:35:26.865Z,992.19
2019-05-09T00:36:27.290Z,992.17
2019-05-09T00:37:27.768Z,992.12
2019-05-09T00:38:28.198Z,992.15
2019-05-09T00:39:28.703Z,992.18
2019-05-09T00:40:29.181Z,992.12
2019-05-09T00:41:29.649Z,992.17
2019-05-09T00:42:30.067Z,992.07
2019-05-09T00:43:30.578Z,992.20
2019-05-09T00:44:31.004Z,992.20
2019-05-09T00:45:33.321Z,992.18
2019-05-09T00:46:34.110Z,992.23
2019-05-09T00:47:55.688Z,992.24
2019-05-09T00:48:56.116Z,992.19
2019-05-09T00:49:57.645Z,992.24
2019-05-09T00:50:58.094Z,992.13
2019-05-09T00:52:05.337Z,992.20
2019-05-09T00:53:05.767Z,992.20
2019-05-09T00:55:23.866Z,992.23
2019-05-09T00:56:45.508Z,992.19
2019-05-09T00:57:45.928Z,992.18
2019-05-09T00:58:46.446Z,992.22
2019-05-09T00:59:46.867Z,992.25
2019-05-09T01:00:47.401Z,992.18
2019-05-09T01:01:47.842Z,992.23
2019-05-09T01:02:48.304Z,992.21
2019-05-09T01:03:48.716Z,992.16
2019-05-09T01:04:49.239Z,992.20
2019-05-09T01:05:49.680Z,992.19
2019-05-09T01:06:50.177Z,992.21
2019-05-09T01:07:50.601Z,992.16
2019-05-09T01:08:53.411Z,992.18
2019-05-09T01:09:54.373Z,992.15
2019-05-09T01:11:08.581Z,992.13
2019-05-09T01:12:01.348Z,992.10
2019-05-09T01:13:03.594Z,992.12
2019-05-09T01:14:04.211Z,992.14
2019-05-09T01:15:04.677Z,992.12
2019-05-09T01:16:05.123Z,992.07
2019-05-09T01:17:05.601Z,992.12
2019-05-09T01:18:06.016Z,992.12
2019-05-09T01:19:06.533Z,992.14
2019-05-09T01:20:06.946Z,992.13
2019-05-09T01:21:07.397Z,992.12
2019-05-09T01:22:07.827Z,992.13
2019-05-09T01:23:09.327Z,992.13
2019-05-09T01:24:09.736Z,992.17
2019-05-09T01:25:10.258Z,992.16
2019-05-09T01:26:13.016Z,992.09
2019-05-09T01:27:14.281Z,992.10
2019-05-09T01:28:14.746Z,992.11
2019-05-09T01:29:15.199Z,992.14
2019-05-09T01:30:15.613Z,992.19
2019-05-09T01:31:16.064Z,992.17
2019-05-09T01:32:16.483Z,992.16
2019-05-09T01:33:16.972Z,992.15
2019-05-09T01:34:17.397Z,992.19
2019-05-09T01:35:26.814Z,992.21
2019-05-09T01:36:27.254Z,992.18
2019-05-09T01:37:27.742Z,992.20
2019-05-09T01:38:28.160Z,992.24
2019-05-09T01:39:45.266Z,992.25
2019-05-09T01:40:45.697Z,992.26
2019-05-09T01:41:53.187Z,992.25
2019-05-09T01:42:53.852Z,992.24
2019-05-09T01:43:55.441Z,992.28
2019-05-09T01:44:55.865Z,992.31
2019-05-09T01:45:56.399Z,992.26
2019-05-09T01:46:56.812Z,992.32
2019-05-09T01:47:57.304Z,992.30
2019-05-09T01:48:57.732Z,992.29
2019-05-09T01:49:58.237Z,992.33
2019-05-09T01:50:58.681Z,992.33
2019-05-09T01:52:03.356Z,992.34
2019-05-09T01:53:04.226Z,992.35
2019-05-09T01:54:04.722Z,992.30
2019-05-09T01:55:05.147Z,992.31
2019-05-09T01:56:06.706Z,992.31
2019-05-09T01:57:07.135Z,992.28
2019-05-09T01:58:07.609Z,992.28
2019-05-09T01:59:08.032Z,992.30
2019-05-09T02:00:08.545Z,992.27
2019-05-09T02:01:08.985Z,992.30
2019-05-09T02:02:10.504Z,992.31
2019-05-09T02:03:10.928Z,992.26
2019-05-09T02:04:13.771Z,992.36
2019-05-09T02:05:14.305Z,992.30
2019-05-09T02:06:16.807Z,992.32
2019-05-09T02:07:17.224Z,992.31
2019-05-09T02:08:17.710Z,992.26
2019-05-09T02:09:18.137Z,992.30
2019-05-09T02:10:18.636Z,992.30
2019-05-09T02:11:19.072Z,992.28
2019-05-09T02:12:19.580Z,992.32
2019-05-09T02:13:19.994Z,992.27
2019-05-09T02:14:20.513Z,992.28
2019-05-09T02:15:20.925Z,992.30
2019-05-09T02:16:23.437Z,992.24
2019-05-09T02:17:23.957Z,992.21
2019-05-09T02:18:24.428Z,992.26
2019-05-09T02:19:24.839Z,992.23
2019-05-09T02:20:25.359Z,992.25
2019-05-09T02:21:25.791Z,992.28
2019-05-09T02:22:28.240Z,992.24
2019-05-09T02:23:28.682Z,992.30
2019-05-09T02:24:30.196Z,992.20
2019-05-09T02:25:30.626Z,992.27
2019-05-09T02:26:33.490Z,992.27
2019-05-09T02:27:33.986Z,992.26
2019-05-09T02:28:34.451Z,992.23
2019-05-09T02:29:34.870Z,992.21
2019-05-09T02:30:36.385Z,992.23
2019-05-09T02:31:36.835Z,992.25
2019-05-09T02:32:39.377Z,992.21
2019-05-09T02:33:39.798Z,992.20
2019-05-09T02:34:47.261Z,992.28
2019-05-09T02:35:56.693Z,992.26
2019-05-09T02:36:54.111Z,992.21
2019-05-09T02:37:54.551Z,992.20
2019-05-09T02:38:54.975Z,992.17
2019-05-09T02:39:58.953Z,992.26
2019-05-09T02:40:59.752Z,992.21
2019-05-09T02:42:08.686Z,992.22
2019-05-09T02:43:09.643Z,992.22
2019-05-09T02:44:19.633Z,992.28
2019-05-09T02:45:20.301Z,992.20
2019-05-09T02:47:38.524Z,992.22
2019-05-09T02:48:40.288Z,992.22
2019-05-09T02:49:40.724Z,992.18
2019-05-09T02:52:08.783Z,992.19
2019-05-09T02:54:32.713Z,992.24
2019-05-09T02:55:39.824Z,992.24
2019-05-09T02:56:40.263Z,992.18
2019-05-09T02:57:40.796Z,992.22
2019-05-09T02:58:41.222Z,992.22
2019-05-09T02:59:59.209Z,992.20
2019-05-09T03:00:59.963Z,992.18
2019-05-09T03:02:19.902Z,992.21
2019-05-09T03:03:20.348Z,992.17
2019-05-09T03:05:38.528Z,992.19
2019-05-09T03:06:40.103Z,992.20
2019-05-09T03:07:40.546Z,992.15
2019-05-09T03:08:41.042Z,992.24
2019-05-09T03:09:41.462Z,992.24
2019-05-09T03:10:49.756Z,992.17
2019-05-09T03:11:50.176Z,992.14
2019-05-09T03:12:51.637Z,992.18
2019-05-09T03:13:52.060Z,992.13
2019-05-09T03:14:59.296Z,992.17
2019-05-09T03:15:59.723Z,992.17
2019-05-09T03:17:02.289Z,992.28
2019-05-09T03:18:02.724Z,992.23
2019-05-09T03:19:19.428Z,992.17
2019-05-09T03:20:20.177Z,992.18
2019-05-09T03:21:50.238Z,992.16
2019-05-09T03:22:50.689Z,992.24
2019-05-09T03:24:14.205Z,992.18
2019-05-09T03:25:14.637Z,992.19
2019-05-09T03:26:38.606Z,992.23
2019-05-09T03:27:39.295Z,992.17
2019-05-09T03:28:49.223Z,992.19
2019-05-09T03:29:49.903Z,992.14
2019-05-09T03:31:12.409Z,992.13
2019-05-09T03:32:12.851Z,992.16
2019-05-09T03:33:45.322Z,992.20
2019-05-09T03:34:47.726Z,992.21
2019-05-09T03:35:57.484Z,992.18
2019-05-09T03:36:58.186Z,992.19
2019-05-09T03:37:59.682Z,992.15
2019-05-09T03:39:00.105Z,992.15
2019-05-09T03:40:07.914Z,992.15
2019-05-09T03:41:08.680Z,992.15
2019-05-09T03:42:21.298Z,992.13
2019-05-09T03:43:22.137Z,992.13
2019-05-09T03:47:17.880Z,992.08
2019-05-09T03:48:18.337Z,992.15
2019-05-09T03:49:19.793Z,992.11
2019-05-09T03:50:20.219Z,992.12
2019-05-09T03:51:49.602Z,992.08
2019-05-09T03:52:50.055Z,992.13
2019-05-09T03:53:57.686Z,992.10
2019-05-09T03:54:58.170Z,992.06
2019-05-09T03:55:58.641Z,992.06
2019-05-09T03:56:59.056Z,992.08
2019-05-09T03:57:59.504Z,992.11
2019-05-09T03:58:59.986Z,992.08
2019-05-09T04:00:00.413Z,992.07
2019-05-09T04:01:00.926Z,992.08
2019-05-09T04:02:01.363Z,992.08
2019-05-09T04:03:01.890Z,992.07
2019-05-09T04:04:02.309Z,992.08
2019-05-09T04:05:02.793Z,992.12
2019-05-09T04:06:03.288Z,992.10
2019-05-09T04:07:03.858Z,992.08
2019-05-09T04:08:04.339Z,992.10
2019-05-09T04:09:04.870Z,992.09
2019-05-09T04:10:07.559Z,992.08
2019-05-09T04:11:08.756Z,992.07
2019-05-09T04:12:09.232Z,992.07
2019-05-09T04:13:11.147Z,992.19
2019-05-09T04:14:11.645Z,992.20
2019-05-09T04:15:12.172Z,992.18
2019-05-09T04:16:12.585Z,992.19
2019-05-09T04:17:14.131Z,992.16
2019-05-09T04:18:14.563Z,992.17
2019-05-09T04:19:17.346Z,992.20
2019-05-09T04:20:17.941Z,992.28
2019-05-09T04:21:18.464Z,992.22
2019-05-09T04:22:18.870Z,992.23
2019-05-09T04:23:19.326Z,992.28
2019-05-09T04:24:19.876Z,992.24
2019-05-09T04:25:20.470Z,992.25
2019-05-09T04:26:20.898Z,992.26
2019-05-09T04:27:21.391Z,992.26
2019-05-09T04:28:21.837Z,992.27
2019-05-09T04:29:22.303Z,992.30
2019-05-09T04:30:22.723Z,992.28
2019-05-09T04:31:23.236Z,992.31
2019-05-09T04:32:23.654Z,992.31
2019-05-09T04:33:24.202Z,992.28
2019-05-09T04:34:24.622Z,992.33
2019-05-09T04:35:27.953Z,992.37
2019-05-09T04:36:28.529Z,992.33
2019-05-09T04:37:31.140Z,992.28
2019-05-09T04:38:31.705Z,992.31
2019-05-09T04:39:32.204Z,992.34
2019-05-09T04:40:37.686Z,992.31
2019-05-09T04:41:39.018Z,992.31
2019-05-09T04:42:43.186Z,992.34
2019-05-09T04:43:44.911Z,992.30
2019-05-09T04:44:51.459Z,992.31
2019-05-09T04:45:53.474Z,992.31
2019-05-09T04:46:58.966Z,992.31
2019-05-09T04:48:00.459Z,992.32
2019-05-09T04:49:02.518Z,992.36
2019-05-09T04:50:03.173Z,992.33
2019-05-09T04:51:03.706Z,992.43
2019-05-09T04:52:04.135Z,992.38
2019-05-09T04:53:04.637Z,992.36
2019-05-09T04:54:07.202Z,992.37
2019-05-09T04:55:07.977Z,992.38
2019-05-09T04:56:08.398Z,992.41
2019-05-09T04:57:08.879Z,992.42
2019-05-09T04:58:09.437Z,992.44
2019-05-09T04:59:09.946Z,992.39
2019-05-09T05:00:10.377Z,992.42
2019-05-09T05:01:10.835Z,992.45
2019-05-09T05:02:11.270Z,992.47
2019-05-09T05:03:11.774Z,992.48
2019-05-09T05:04:12.223Z,992.49
2019-05-09T05:05:12.709Z,992.49
2019-05-09T05:06:13.164Z,992.53
2019-05-09T05:07:13.642Z,992.48
2019-05-09T05:08:14.069Z,992.55
2019-05-09T05:09:14.610Z,992.54
2019-05-09T05:10:15.043Z,992.55
2019-05-09T05:11:17.707Z,992.53
2019-05-09T05:12:18.749Z,992.60
2019-05-09T05:13:26.311Z,992.57
2019-05-09T05:14:27.987Z,992.58
2019-05-09T05:15:35.102Z,992.50
2019-05-09T05:16:38.993Z,992.55
2019-05-09T05:17:39.716Z,992.55
2019-05-09T05:18:40.159Z,992.55
2019-05-09T05:19:41.670Z,992.53
2019-05-09T05:20:42.089Z,992.56
2019-05-09T05:21:43.525Z,992.55
2019-05-09T05:22:43.944Z,992.49
2019-05-09T05:23:44.495Z,992.51
2019-05-09T05:24:44.925Z,992.49
2019-05-09T05:25:54.097Z,992.52
2019-05-09T05:26:54.510Z,992.50
2019-05-09T05:27:55.032Z,992.48
2019-05-09T05:28:55.466Z,992.50
2019-05-09T05:29:58.369Z,992.52
2019-05-09T05:30:58.946Z,992.51
2019-05-09T05:32:08.463Z,992.50
2019-05-09T05:33:08.991Z,992.52
2019-05-09T05:34:12.612Z,992.52
2019-05-09T05:35:13.035Z,992.52
2019-05-09T05:36:18.008Z,992.49
2019-05-09T05:37:18.635Z,992.54
2019-05-09T05:38:20.089Z,992.52
2019-05-09T05:39:20.524Z,992.60
2019-05-09T05:40:22.050Z,992.57
2019-05-09T05:41:22.470Z,992.55
2019-05-09T05:42:29.635Z,992.55
2019-05-09T05:43:40.557Z,992.63
2019-05-09T05:44:38.560Z,992.59
2019-05-09T05:45:39.150Z,992.65
2019-05-09T05:46:40.617Z,992.65
2019-05-09T05:47:41.041Z,992.63
2019-05-09T05:48:42.578Z,992.65
2019-05-09T05:49:43.007Z,992.64
2019-05-09T05:50:45.449Z,992.62
2019-05-09T05:51:47.674Z,992.64
2019-05-09T05:52:49.674Z,992.63
2019-05-09T05:53:50.092Z,992.71
2019-05-09T05:54:55.644Z,992.77
2019-05-09T05:55:58.005Z,992.71
2019-05-09T05:56:58.646Z,992.71
2019-05-09T05:57:59.080Z,992.72
2019-05-09T05:58:59.574Z,992.73
2019-05-09T06:00:00.107Z,992.71
2019-05-09T06:01:08.407Z,992.76
2019-05-09T06:02:08.956Z,992.78
2019-05-09T06:03:10.472Z,992.80
2019-05-09T06:04:10.895Z,992.81
2019-05-09T06:05:11.417Z,992.82
2019-05-09T06:06:11.855Z,992.84
2019-05-09T06:07:12.316Z,992.84
2019-05-09T06:08:12.743Z,992.82
2019-05-09T06:09:13.176Z,992.76
2019-05-09T06:10:30.568Z,992.81
2019-05-09T06:11:30.983Z,992.84
2019-05-09T06:12:31.501Z,992.83
2019-05-09T06:13:31.914Z,992.84
2019-05-09T06:14:33.387Z,992.83
2019-05-09T06:15:33.807Z,992.82
2019-05-09T06:16:37.557Z,992.90
2019-05-09T06:17:38.417Z,992.82
2019-05-09T06:18:53.567Z,992.84
2019-05-09T06:19:54.021Z,992.83
2019-05-09T06:21:01.057Z,992.78
2019-05-09T06:22:01.472Z,992.83
2019-05-09T06:23:01.992Z,992.80
2019-05-09T06:24:02.409Z,992.75
2019-05-09T06:25:02.839Z,992.76
2019-05-09T06:26:03.271Z,992.76
2019-05-09T06:27:06.979Z,992.73
2019-05-09T06:28:10.163Z,992.80
2019-05-09T06:29:10.583Z,992.79
2019-05-09T06:30:11.238Z,992.85
2019-05-09T06:31:11.702Z,992.80
2019-05-09T06:32:12.126Z,992.79
2019-05-09T06:33:14.655Z,992.79
2019-05-09T06:34:15.075Z,992.81
2019-05-09T06:35:17.709Z,992.80
2019-05-09T06:36:18.884Z,992.75
2019-05-09T06:37:41.506Z,992.79
2019-05-09T06:38:41.929Z,992.77
2019-05-09T06:39:50.158Z,992.77
2019-05-09T06:40:50.576Z,992.70
2019-05-09T06:41:52.075Z,992.68
2019-05-09T06:42:52.502Z,992.70
2019-05-09T06:44:16.194Z,992.71
2019-05-09T06:45:15.129Z,992.72
2019-05-09T06:46:18.105Z,992.72
2019-05-09T06:47:18.737Z,992.74
2019-05-09T06:48:28.300Z,992.68
2019-05-09T06:49:31.777Z,992.64
2019-05-09T06:50:32.623Z,992.67
2019-05-09T06:51:33.061Z,992.68
2019-05-09T06:52:33.629Z,992.69
2019-05-09T06:53:34.043Z,992.70
2019-05-09T06:54:36.606Z,992.71
2019-05-09T06:55:38.520Z,992.75
2019-05-09T06:56:47.574Z,992.71
2019-05-09T06:57:48.913Z,992.62
2019-05-09T06:58:49.631Z,992.72
2019-05-09T06:59:50.061Z,992.73
2019-05-09T07:00:51.643Z,992.70
2019-05-09T07:01:52.078Z,992.72
2019-05-09T07:02:57.300Z,992.76
2019-05-09T07:03:58.733Z,992.80
2019-05-09T07:13:27.655Z,992.72
2019-05-09T07:14:32.394Z,992.72
2019-05-09T07:15:33.605Z,992.71
2019-05-09T07:16:34.056Z,992.71
2019-05-09T07:17:43.106Z,992.69
2019-05-09T07:18:43.523Z,992.70
2019-05-09T07:19:44.288Z,992.76
2019-05-09T07:20:48.414Z,992.73
2019-05-09T07:21:48.853Z,992.71
2019-05-09T07:22:50.406Z,992.67
2019-05-09T07:23:50.835Z,992.68
2019-05-09T07:24:51.261Z,992.60
2019-05-09T07:25:51.829Z,992.66
2019-05-09T07:26:52.257Z,992.75
2019-05-09T07:27:52.909Z,992.69
2019-05-09T07:28:53.334Z,992.67
2019-05-09T07:29:53.849Z,992.71
2019-05-09T07:30:54.321Z,992.73
2019-05-09T07:31:57.229Z,992.67
2019-05-09T07:32:58.131Z,992.73
2019-05-09T07:33:59.715Z,992.77
2019-05-09T07:35:00.559Z,992.76
2019-05-09T07:36:01.077Z,992.76
2019-05-09T07:37:01.502Z,992.75
2019-05-09T07:38:02.087Z,992.75
2019-05-09T07:39:02.512Z,992.69
2019-05-09T07:40:05.063Z,992.75
2019-05-09T07:41:05.521Z,992.76
2019-05-09T07:42:14.607Z,992.77
2019-05-09T07:43:15.040Z,992.74
2019-05-09T07:44:18.248Z,992.77
2019-05-09T07:45:18.851Z,992.78
2019-05-09T07:46:19.394Z,992.79
2019-05-09T07:47:19.818Z,992.81
2019-05-09T07:48:22.445Z,992.79
2019-05-09T07:49:22.871Z,992.84
2019-05-09T07:50:23.287Z,992.76
2019-05-09T07:51:26.844Z,992.79
2019-05-09T07:52:28.455Z,992.75
2019-05-09T07:53:38.077Z,992.79
2019-05-09T07:54:38.674Z,992.72
2019-05-09T07:55:41.251Z,992.69
2019-05-09T07:56:41.666Z,992.73
2019-05-09T07:57:47.474Z,992.72
2019-05-09T07:58:50.611Z,992.66
2019-05-09T08:00:00.199Z,992.65
2019-05-09T08:01:01.689Z,992.66
2019-05-09T08:02:02.369Z,992.61
2019-05-09T08:03:02.861Z,992.66
2019-05-09T08:04:03.409Z,992.65
2019-05-09T08:05:03.856Z,992.67
2019-05-09T08:06:04.375Z,992.67
2019-05-09T08:07:04.962Z,992.65
2019-05-09T08:08:07.350Z,992.67
2019-05-09T08:09:15.214Z,992.63
2019-05-09T08:10:17.542Z,992.65
2019-05-09T08:11:18.286Z,992.60
2019-05-09T08:12:21.490Z,992.71
2019-05-09T08:13:24.050Z,992.62
2019-05-09T08:14:24.499Z,992.68
2019-05-09T08:15:28.088Z,992.63
2019-05-09T08:16:28.703Z,992.65
2019-05-09T08:17:30.345Z,992.59
2019-05-09T08:18:30.811Z,992.57
2019-05-09T08:19:31.359Z,992.54
2019-05-09T08:20:31.839Z,992.65
2019-05-09T08:21:32.309Z,992.65
2019-05-09T08:22:32.937Z,992.57
2019-05-09T08:23:33.413Z,992.56
2019-05-09T08:24:50.557Z,992.63
2019-05-09T08:25:51.056Z,992.73
2019-05-09T08:26:52.620Z,992.61
2019-05-09T08:27:53.067Z,992.63
2019-05-09T08:28:53.665Z,992.67
2019-05-09T08:29:54.201Z,992.56
2019-05-09T08:30:58.324Z,992.55
2019-05-09T08:31:59.309Z,992.64
2019-05-09T08:33:00.205Z,992.55
2019-05-09T08:34:00.750Z,992.64
2019-05-09T08:35:01.312Z,992.62
2019-05-09T08:36:08.764Z,992.58
2019-05-09T08:37:12.585Z,992.49
2019-05-09T08:38:13.163Z,992.50
2019-05-09T08:39:14.811Z,992.48
2019-05-09T08:40:15.271Z,992.52
2019-05-09T08:41:18.671Z,992.47
2019-05-09T08:42:20.053Z,992.48
2019-05-09T08:43:20.781Z,992.51
2019-05-09T08:44:21.240Z,992.45
2019-05-09T08:45:31.644Z,992.50
2019-05-09T08:46:32.248Z,992.50
2019-05-09T08:47:34.737Z,992.49
2019-05-09T08:48:37.627Z,992.53
2019-05-09T08:49:40.463Z,992.54
2019-05-09T08:50:40.905Z,992.45
2019-05-09T08:52:06.834Z,992.49
2019-05-09T08:52:53.098Z,992.53
2019-05-09T08:53:57.822Z,992.54
2019-05-09T08:54:58.404Z,992.59
2019-05-09T08:55:59.043Z,992.63
2019-05-09T08:56:59.506Z,992.55
2019-05-09T08:57:59.958Z,992.54
2019-05-09T08:59:02.260Z,992.55
2019-05-09T09:00:03.051Z,992.55
2019-05-09T09:01:04.586Z,992.53
2019-05-09T09:02:14.897Z,992.57
2019-05-09T09:03:11.603Z,992.55
2019-05-09T09:04:12.199Z,992.53
2019-05-09T09:05:14.130Z,992.51
2019-05-09T09:06:14.772Z,992.50
2019-05-09T09:07:15.240Z,992.56
2019-05-09T09:08:18.117Z,992.49
2019-05-09T09:09:18.860Z,992.49
2019-05-09T09:10:19.404Z,992.51
2019-05-09T09:11:19.910Z,992.52
2019-05-09T09:12:30.364Z,992.50
2019-05-09T09:13:28.386Z,992.53
2019-05-09T09:14:28.975Z,992.45
2019-05-09T09:15:56.345Z,992.42
2019-05-09T09:16:37.911Z,992.42
2019-05-09T09:17:38.915Z,992.45
2019-05-09T09:18:39.354Z,992.42
2019-05-09T09:19:39.875Z,992.46
2019-05-09T09:20:40.305Z,992.43
2019-05-09T09:21:40.779Z,992.41
2019-05-09T09:22:41.208Z,992.43
2019-05-09T09:23:46.755Z,992.38
2019-05-09T09:24:48.384Z,992.39
2019-05-09T09:25:49.033Z,992.42
2019-05-09T09:26:49.510Z,992.33
2019-05-09T09:27:51.140Z,992.34
2019-05-09T09:28:51.684Z,992.31
2019-05-09T09:29:52.199Z,992.28
2019-05-09T09:30:52.629Z,992.28
2019-05-09T09:31:53.170Z,992.25
2019-05-09T09:32:53.603Z,992.21
2019-05-09T09:33:54.066Z,992.28
2019-05-09T09:34:54.489Z,992.19
2019-05-09T09:35:55.002Z,992.27
2019-05-09T09:36:55.454Z,992.26
2019-05-09T09:37:58.036Z,992.20
2019-05-09T09:38:58.799Z,992.23
2019-05-09T09:40:01.377Z,992.30
2019-05-09T09:41:01.809Z,992.27
2019-05-09T09:42:03.288Z,992.25
2019-05-09T09:43:03.729Z,992.31
2019-05-09T09:44:04.279Z,992.31
2019-05-09T09:45:04.704Z,992.29
2019-05-09T09:46:13.343Z,992.36
2019-05-09T09:47:11.621Z,992.34
2019-05-09T09:48:12.080Z,992.34
2019-05-09T09:49:12.508Z,992.32
2019-05-09T09:50:13.015Z,992.27
2019-05-09T09:51:13.461Z,992.26
2019-05-09T09:52:13.928Z,992.32
2019-05-09T09:53:14.359Z,992.27
2019-05-09T09:54:14.882Z,992.20
2019-05-09T09:55:15.324Z,992.24
2019-05-09T09:56:17.841Z,992.24
2019-05-09T09:57:20.750Z,992.27
2019-05-09T09:58:22.280Z,992.29
2019-05-09T09:59:22.714Z,992.25
2019-05-09T10:00:23.215Z,992.23
2019-05-09T10:01:23.658Z,992.16
2019-05-09T10:02:27.676Z,992.21
2019-05-09T10:03:28.456Z,992.18
2019-05-09T10:04:28.974Z,992.20
2019-05-09T10:05:29.416Z,992.17
2019-05-09T10:06:29.931Z,992.14
2019-05-09T10:07:30.380Z,992.11
2019-05-09T10:08:31.868Z,992.11
2019-05-09T10:09:32.310Z,992.12
2019-05-09T10:10:32.812Z,992.13
2019-05-09T10:11:33.259Z,992.12
2019-05-09T10:12:34.841Z,992.20
2019-05-09T10:13:37.392Z,992.09
2019-05-09T10:14:38.051Z,992.10
2019-05-09T10:15:38.543Z,992.16
2019-05-09T10:16:39.173Z,992.21
2019-05-09T10:17:39.622Z,992.13
2019-05-09T10:18:40.135Z,992.19
2019-05-09T10:19:40.598Z,992.14
2019-05-09T10:20:41.093Z,992.25
2019-05-09T10:21:41.540Z,992.19
2019-05-09T10:22:46.764Z,992.17
2019-05-09T10:23:48.481Z,992.31
2019-05-09T10:24:48.967Z,992.16
2019-05-09T10:25:49.419Z,992.26
2019-05-09T10:26:49.914Z,992.24
2019-05-09T10:27:50.407Z,992.21
2019-05-09T10:28:50.940Z,992.18
2019-05-09T10:29:51.361Z,992.23
2019-05-09T10:30:51.878Z,992.17
2019-05-09T10:31:52.320Z,992.22
2019-05-09T10:32:52.891Z,992.19
2019-05-09T10:33:54.058Z,992.21
2019-05-09T10:34:59.582Z,992.20
2019-05-09T10:36:04.249Z,992.15
2019-05-09T10:37:07.547Z,992.17
2019-05-09T10:38:08.928Z,992.13
2019-05-09T10:39:09.542Z,992.20
2019-05-09T10:40:09.983Z,992.15
2019-05-09T10:41:11.500Z,992.15
2019-05-09T10:42:12.019Z,992.17
2019-05-09T10:43:13.495Z,992.16
2019-05-09T10:44:13.948Z,992.18
2019-05-09T10:45:14.494Z,992.13
2019-05-09T10:46:18.510Z,992.23
2019-05-09T10:47:21.675Z,992.11
2019-05-09T10:48:24.061Z,992.15
2019-05-09T10:49:24.666Z,992.12
2019-05-09T10:50:33.790Z,992.11
2019-05-09T10:51:35.323Z,992.12
2019-05-09T10:52:35.810Z,992.09
2019-05-09T10:53:36.366Z,992.08
2019-05-09T10:54:36.790Z,992.03
2019-05-09T10:55:38.447Z,992.04
2019-05-09T10:56:39.162Z,992.02
2019-05-09T10:57:42.412Z,992.04
2019-05-09T10:58:43.619Z,992.09
2019-05-09T10:59:44.081Z,992.11
2019-05-09T11:00:44.511Z,992.12
2019-05-09T11:01:44.936Z,992.05
2019-05-09T11:02:45.396Z,992.11
2019-05-09T11:03:48.325Z,992.09
2019-05-09T11:04:49.243Z,992.10
2019-05-09T11:05:51.794Z,992.11
2019-05-09T11:06:52.225Z,992.04
2019-05-09T11:07:53.791Z,992.08
2019-05-09T11:08:54.227Z,992.01
2019-05-09T11:09:54.690Z,992.06
2019-05-09T11:10:55.119Z,992.08
2019-05-09T11:11:58.747Z,992.05
2019-05-09T11:13:02.048Z,992.09
2019-05-09T11:14:02.617Z,992.09
2019-05-09T11:15:03.111Z,992.02
2019-05-09T11:16:03.701Z,992.10
2019-05-09T11:17:10.747Z,992.07
2019-05-09T11:18:10.676Z,992.04
2019-05-09T11:19:11.231Z,991.99
2019-05-09T11:20:11.672Z,991.99
2019-05-09T11:21:12.267Z,992.07
2019-05-09T11:22:12.696Z,992.09
2019-05-09T11:23:13.238Z,992.13
2019-05-09T11:24:13.673Z,992.13
2019-05-09T11:25:14.145Z,992.02
2019-05-09T11:26:14.590Z,992.01
2019-05-09T11:27:15.075Z,992.04
2019-05-09T11:28:17.825Z,992.00
2019-05-09T11:29:18.831Z,992.00
2019-05-09T11:30:19.366Z,992.02
2019-05-09T11:31:20.147Z,991.97
2019-05-09T11:32:20.697Z,992.01
2019-05-09T11:33:21.189Z,991.98
2019-05-09T11:34:21.696Z,992.00
2019-05-09T11:35:22.149Z,992.02
2019-05-09T11:36:22.757Z,992.06
2019-05-09T11:37:23.187Z,992.04
2019-05-09T11:38:32.315Z,992.03
2019-05-09T11:39:38.663Z,992.05
2019-05-09T11:40:37.858Z,992.14
2019-05-09T11:41:38.692Z,992.10
2019-05-09T11:42:39.145Z,992.06
2019-05-09T11:43:39.740Z,992.11
2019-05-09T11:44:40.184Z,992.19
2019-05-09T11:45:40.752Z,992.17
2019-05-09T11:46:41.201Z,992.23
2019-05-09T11:47:46.094Z,992.16
2019-05-09T11:48:47.129Z,992.20
2019-05-09T11:49:48.662Z,992.21
2019-05-09T11:50:49.102Z,992.21
2019-05-09T11:51:49.839Z,992.19
2019-05-09T11:52:50.284Z,992.18
2019-05-09T11:53:50.905Z,992.19
2019-05-09T11:54:51.367Z,992.22
2019-05-09T11:55:51.893Z,992.21
2019-05-09T11:56:52.343Z,992.21
2019-05-09T11:57:52.916Z,992.20
2019-05-09T11:58:53.362Z,992.21
2019-05-09T11:59:55.000Z,992.27
2019-05-09T12:00:55.432Z,992.23
2019-05-09T12:01:58.402Z,992.22
2019-05-09T12:02:59.173Z,992.27
2019-05-09T12:04:00.731Z,992.18
2019-05-09T12:05:01.196Z,992.23
2019-05-09T12:06:01.706Z,992.27
2019-05-09T12:07:02.161Z,992.26
2019-05-09T12:08:02.689Z,992.23
2019-05-09T12:09:03.249Z,992.28
2019-05-09T12:10:03.783Z,992.34
2019-05-09T12:11:04.261Z,992.28
2019-05-09T12:12:04.726Z,992.29
2019-05-09T12:13:05.164Z,992.27
2019-05-09T12:14:05.699Z,992.26
2019-05-09T12:15:08.590Z,992.25
2019-05-09T12:16:09.356Z,992.31
2019-05-09T12:17:09.800Z,992.28
2019-05-09T12:18:11.652Z,992.20
2019-05-09T12:19:12.314Z,992.32
2019-05-09T12:20:13.867Z,992.27
2019-05-09T12:21:14.352Z,992.22
2019-05-09T12:22:14.857Z,992.22
2019-05-09T12:23:15.299Z,992.21
2019-05-09T12:24:18.266Z,992.22
2019-05-09T12:25:19.301Z,992.23
2019-05-09T12:26:21.835Z,992.24
2019-05-09T12:27:22.287Z,992.18
2019-05-09T12:28:22.849Z,992.23
2019-05-09T12:29:23.303Z,992.23
2019-05-09T12:30:23.800Z,992.25
2019-05-09T12:31:24.237Z,992.21
2019-05-09T12:32:28.274Z,992.25
2019-05-09T12:33:33.108Z,992.25
2019-05-09T12:34:34.020Z,992.28
2019-05-09T12:35:34.466Z,992.27
2019-05-09T12:36:34.986Z,992.28
2019-05-09T12:37:37.688Z,992.20
2019-05-09T12:38:39.391Z,992.21
2019-05-09T12:39:39.857Z,992.25
2019-05-09T12:40:40.323Z,992.22
2019-05-09T12:41:40.772Z,992.20
2019-05-09T12:42:42.321Z,992.31
2019-05-09T12:43:42.775Z,992.37
2019-05-09T12:44:43.303Z,992.34
2019-05-09T12:45:43.755Z,992.30
2019-05-09T12:46:44.266Z,992.35
2019-05-09T12:47:44.690Z,992.31
2019-05-09T12:48:47.945Z,992.30
2019-05-09T12:49:48.954Z,992.38
2019-05-09T12:50:49.503Z,992.42
2019-05-09T12:51:49.938Z,992.37
2019-05-09T12:52:50.434Z,992.36
2019-05-09T12:53:50.895Z,992.38
2019-05-09T12:54:51.419Z,992.43
2019-05-09T12:55:51.851Z,992.45
2019-05-09T12:56:52.410Z,992.44
2019-05-09T12:57:52.843Z,992.54
2019-05-09T12:59:00.095Z,992.46
2019-05-09T13:00:00.583Z,992.48
2019-05-09T13:01:02.163Z,992.51
2019-05-09T13:02:02.606Z,992.50
2019-05-09T13:03:12.007Z,992.51
2019-05-09T13:04:12.532Z,992.52
2019-05-09T13:05:13.097Z,992.48
2019-05-09T13:06:13.550Z,992.49
2019-05-09T13:07:14.142Z,992.55
2019-05-09T13:08:14.614Z,992.57
2019-05-09T13:09:17.625Z,992.55
2019-05-09T13:10:19.480Z,992.53